Time;durP1;ratioP1;P1;durP2;ratioP2;P2;SDS_P1;SDS_P2;PMS_P1;PMS_P2;Temp;Humidity;BMP_temperature;BMP_pressure;BME280_temperature;BME280_humidity;BME280_pressure;Samples;Min_cycle;Max_cycle;Signal;HPM_P1;HPM_P2
2021/03/19 00:00:58;;;;;;;9.23;5.13;;;3.40;99.90;;;;;;4981725;28;20867;-48
2021/03/19 00:03:26;;;;;;;9.43;6.30;;;3.50;99.90;;;;;;4982364;28;20797;-55
2021/03/19 00:05:56;;;;;;;8.37;6.00;;;3.50;99.90;;;;;;4980985;28;20915;-54
2021/03/19 00:08:25;;;;;;;10.03;5.87;;;3.60;99.90;;;;;;4980942;28;20841;-51
2021/03/19 00:10:54;;;;;;;11.20;6.27;;;3.50;99.90;;;;;;4980803;28;20835;-52
2021/03/19 00:13:22;;;;;;;8.90;6.23;;;3.50;99.90;;;;;;4980169;28;20454;-51
2021/03/19 00:15:50;;;;;;;9.57;6.27;;;3.60;99.90;;;;;;4980319;28;21022;-56
2021/03/19 00:18:19;;;;;;;11.43;6.03;;;3.70;99.90;;;;;;4980576;28;20800;-49
2021/03/19 00:20:49;;;;;;;9.13;5.57;;;3.70;99.90;;;;;;4981299;28;20849;-54
2021/03/19 00:23:19;;;;;;;8.30;5.40;;;3.70;99.90;;;;;;4981651;28;20851;-55
2021/03/19 00:25:47;;;;;;;6.97;4.57;;;3.70;99.90;;;;;;4981157;28;20760;-52
2021/03/19 00:28:15;;;;;;;7.97;5.40;;;3.70;99.90;;;;;;4981029;28;20521;-53
2021/03/19 00:30:44;;;;;;;7.20;5.40;;;3.80;99.90;;;;;;4981298;28;20812;-54
2021/03/19 00:33:13;;;;;;;9.40;5.40;;;3.80;99.90;;;;;;4980799;28;20847;-50
2021/03/19 00:35:41;;;;;;;8.10;5.90;;;3.70;99.90;;;;;;4980922;28;20848;-53
2021/03/19 00:38:10;;;;;;;10.70;5.60;;;3.70;99.90;;;;;;4980265;28;20838;-54
2021/03/19 00:40:41;;;;;;;8.30;5.43;;;3.60;99.90;;;;;;4980618;28;20795;-51
2021/03/19 00:43:12;;;;;;;9.27;5.80;;;3.60;99.90;;;;;;4980001;28;20494;-53
2021/03/19 00:45:40;;;;;;;10.87;6.50;;;3.60;99.90;;;;;;4980589;28;20771;-54
2021/03/19 00:48:09;;;;;;;6.80;5.00;;;3.60;99.90;;;;;;4979831;28;20486;-54
2021/03/19 00:50:39;;;;;;;9.43;5.33;;;3.70;99.90;;;;;;4979881;28;20478;-54
2021/03/19 00:53:07;;;;;;;9.43;6.47;;;3.70;99.90;;;;;;4981632;28;20822;-54
2021/03/19 00:55:35;;;;;;;9.97;5.70;;;3.70;99.90;;;;;;4980757;28;20811;-52
2021/03/19 00:58:06;;;;;;;8.03;5.10;;;3.70;99.90;;;;;;4980078;28;20780;-53
2021/03/19 01:00:37;;;;;;;8.60;5.67;;;3.70;99.90;;;;;;4979749;28;20943;-53
2021/03/19 01:03:06;;;;;;;10.73;6.60;;;3.70;99.90;;;;;;4980661;28;20777;-55
2021/03/19 01:05:37;;;;;;;12.03;7.30;;;3.80;99.90;;;;;;4980493;28;20817;-56
2021/03/19 01:08:06;;;;;;;15.10;9.80;;;3.80;99.90;;;;;;4979431;28;21139;-52
2021/03/19 01:10:36;;;;;;;21.30;13.60;;;3.90;99.90;;;;;;4979122;28;20960;-55
2021/03/19 01:13:06;;;;;;;21.30;14.03;;;3.90;99.90;;;;;;4979762;28;20903;-52
2021/03/19 01:15:35;;;;;;;23.07;14.80;;;4.00;99.90;;;;;;4979283;28;20799;-52
2021/03/19 01:18:04;;;;;;;21.97;14.03;;;4.00;99.90;;;;;;4979466;28;20785;-54
2021/03/19 01:20:33;;;;;;;23.40;13.10;;;4.00;99.90;;;;;;4979300;28;20765;-53
2021/03/19 01:23:02;;;;;;;17.67;12.53;;;4.10;99.90;;;;;;4979450;28;20772;-52
2021/03/19 01:25:31;;;;;;;19.23;11.77;;;4.10;99.90;;;;;;4979251;28;20804;-53
2021/03/19 01:27:59;;;;;;;24.87;13.67;;;4.20;99.90;;;;;;4978939;28;20785;-53
2021/03/19 01:30:31;;;;;;;19.90;12.07;;;4.20;99.90;;;;;;4979270;28;20838;-53
2021/03/19 01:32:59;;;;;;;20.17;11.30;;;4.30;99.90;;;;;;4979354;28;20955;-51
2021/03/19 01:35:30;;;;;;;18.70;10.80;;;4.30;99.90;;;;;;4979159;28;20916;-51
2021/03/19 01:37:59;;;;;;;19.70;12.07;;;4.30;99.90;;;;;;4979127;28;20803;-49
2021/03/19 01:40:31;;;;;;;20.50;11.93;;;4.30;99.90;;;;;;4979250;28;20795;-49
2021/03/19 01:43:01;;;;;;;33.43;12.90;;;4.30;99.90;;;;;;4979457;28;20844;-48
2021/03/19 01:46:16;;;;;;;21.07;12.27;;;4.30;99.90;;;;;;4978876;28;20823;-50
2021/03/19 01:49:21;;;;;;;17.10;9.90;;;4.30;99.90;;;;;;4979483;28;20831;-48
2021/03/19 01:52:25;;;;;;;24.00;13.50;;;4.30;99.90;;;;;;4979845;28;20752;-50
2021/03/19 01:55:30;;;;;;;20.87;9.37;;;4.20;99.90;;;;;;4978979;28;20530;-49
2021/03/19 01:58:34;;;;;;;20.60;9.77;;;4.10;99.90;;;;;;4978853;28;20799;-52
2021/03/19 02:01:39;;;;;;;19.07;9.80;;;4.10;99.90;;;;;;4978772;28;20844;-52
2021/03/19 02:04:43;;;;;;;15.50;9.43;;;4.10;99.90;;;;;;4978844;28;20815;-49
2021/03/19 02:07:48;;;;;;;10.53;6.77;;;4.00;99.90;;;;;;4979136;28;20801;-53
2021/03/19 02:10:53;;;;;;;14.33;7.80;;;4.00;99.90;;;;;;4978852;28;20833;-53
2021/03/19 02:14:06;;;;;;;11.90;8.03;;;3.90;99.90;;;;;;4979716;28;20792;-50
2021/03/19 02:17:10;;;;;;;14.50;8.10;;;3.80;99.90;;;;;;4953225;28;20971;-50
2021/03/19 02:20:15;;;;;;;19.00;9.40;;;3.80;99.90;;;;;;4979796;28;20459;-51
2021/03/19 02:23:19;;;;;;;19.43;10.17;;;3.80;99.90;;;;;;4979692;28;20786;-48
2021/03/19 02:26:24;;;;;;;17.40;9.50;;;3.80;99.90;;;;;;4979726;28;20458;-49
2021/03/19 02:29:30;;;;;;;16.53;8.87;;;3.70;99.90;;;;;;4978509;28;20736;-54
2021/03/19 02:32:09;;;;;;;21.23;13.07;;;3.70;99.90;;;;;;4964726;28;20475;-48
2021/03/19 02:34:42;;;;;;;21.30;11.73;;;3.70;99.90;;;;;;4963810;29;20751;-50
2021/03/19 02:37:12;;;;;;;19.90;11.00;;;3.60;99.90;;;;;;4958208;29;20889;-49
2021/03/19 02:39:41;;;;;;;23.33;10.90;;;3.60;99.90;;;;;;4954100;29;20456;-49
2021/03/19 02:42:11;;;;;;;25.73;12.50;;;3.60;99.90;;;;;;4944445;29;20896;-53
2021/03/19 02:44:39;;;;;;;19.03;11.00;;;3.60;99.90;;;;;;4941807;29;20788;-53
2021/03/19 02:47:08;;;;;;;32.73;13.33;;;3.60;99.90;;;;;;4940179;29;20909;-51
2021/03/19 02:49:37;;;;;;;26.17;12.70;;;3.60;99.90;;;;;;4939084;29;20938;-53
2021/03/19 02:52:06;;;;;;;24.93;12.33;;;3.60;99.90;;;;;;4946957;29;20793;-52
2021/03/19 02:54:37;;;;;;;21.93;12.57;;;3.60;99.90;;;;;;4958305;28;20921;-54
2021/03/19 02:57:06;;;;;;;29.63;12.80;;;3.60;99.90;;;;;;4958907;29;21004;-52
2021/03/19 02:59:35;;;;;;;27.03;12.13;;;3.60;99.90;;;;;;4958973;29;20468;-48
2021/03/19 03:02:03;;;;;;;28.00;11.67;;;3.60;99.90;;;;;;4958934;29;20785;-51
2021/03/19 03:04:33;;;;;;;29.67;12.60;;;3.60;99.90;;;;;;4952402;28;20830;-50
2021/03/19 03:07:02;;;;;;;22.70;12.30;;;3.50;99.90;;;;;;4958443;29;20462;-51
2021/03/19 03:09:35;;;;;;;41.77;15.03;;;3.50;99.90;;;;;;4958451;29;20456;-53
2021/03/19 03:12:05;;;;;;;36.57;14.73;;;3.50;99.90;;;;;;4952377;29;20898;-53
2021/03/19 03:14:33;;;;;;;32.43;13.17;;;3.50;99.90;;;;;;4947098;28;20470;-55
2021/03/19 03:17:04;;;;;;;27.90;13.50;;;3.40;99.90;;;;;;4947155;29;20821;-55
2021/03/19 03:19:36;;;;;;;43.93;15.93;;;3.40;99.90;;;;;;4947790;29;20846;-53
2021/03/19 03:22:05;;;;;;;36.23;14.23;;;3.50;99.90;;;;;;4967798;28;20813;-55
2021/03/19 03:24:34;;;;;;;31.40;14.47;;;3.50;99.90;;;;;;4968281;28;20463;-51
2021/03/19 03:27:03;;;;;;;47.10;17.60;;;3.50;99.90;;;;;;4953325;28;20808;-54
2021/03/19 03:29:31;;;;;;;36.30;14.60;;;3.50;99.90;;;;;;4962813;28;20812;-52
2021/03/19 03:31:59;;;;;;;35.03;14.60;;;3.40;99.90;;;;;;4967066;28;20828;-56
2021/03/19 03:34:27;;;;;;;32.17;14.30;;;3.40;99.90;;;;;;4965362;28;20849;-50
2021/03/19 03:36:57;;;;;;;24.97;15.20;;;3.40;99.90;;;;;;4968680;28;20486;-54
2021/03/19 03:39:26;;;;;;;37.47;15.30;;;3.40;99.90;;;;;;4977330;28;20808;-54
2021/03/19 03:41:56;;;;;;;32.03;12.77;;;3.40;99.90;;;;;;4976632;28;20820;-53
2021/03/19 03:44:24;;;;;;;28.90;14.10;;;3.50;99.90;;;;;;4977298;28;20454;-55
2021/03/19 03:46:55;;;;;;;41.17;17.10;;;3.50;99.90;;;;;;4976839;28;20817;-51
2021/03/19 03:49:24;;;;;;;43.00;17.00;;;3.50;99.90;;;;;;4977370;28;20485;-52
2021/03/19 03:51:53;;;;;;;32.90;14.83;;;3.50;99.90;;;;;;4977024;28;20840;-53
2021/03/19 03:54:23;;;;;;;33.17;15.30;;;3.40;99.90;;;;;;4977306;28;20467;-53
2021/03/19 03:56:51;;;;;;;37.67;14.83;;;3.50;99.90;;;;;;4977400;28;20986;-52
2021/03/19 03:59:19;;;;;;;43.00;15.83;;;3.50;99.90;;;;;;4976722;28;20890;-55
2021/03/19 04:01:48;;;;;;;39.80;19.43;;;3.50;99.90;;;;;;4977634;28;20459;-54
2021/03/19 04:04:17;;;;;;;51.23;17.23;;;3.50;99.90;;;;;;4976888;28;21091;-53
2021/03/19 04:06:45;;;;;;;29.27;13.00;;;3.40;99.90;;;;;;4977046;28;20781;-52
2021/03/19 04:09:13;;;;;;;33.70;14.73;;;3.40;99.90;;;;;;4977802;28;20458;-52
2021/03/19 04:11:43;;;;;;;34.53;14.87;;;3.40;99.90;;;;;;4974909;28;20832;-49
2021/03/19 04:14:11;;;;;;;35.17;14.50;;;3.40;99.90;;;;;;4971743;28;20463;-47
2021/03/19 04:16:42;;;;;;;39.03;14.70;;;3.40;99.90;;;;;;4970272;28;20475;-51
2021/03/19 04:19:10;;;;;;;30.10;14.33;;;3.40;99.90;;;;;;4973759;28;20546;-49
2021/03/19 04:21:40;;;;;;;35.17;15.13;;;3.30;99.90;;;;;;4973398;28;20816;-55
2021/03/19 04:24:08;;;;;;;43.10;16.77;;;3.30;99.90;;;;;;4975701;28;20788;-53
2021/03/19 04:26:37;;;;;;;28.10;16.13;;;3.30;99.90;;;;;;4969957;28;20453;-53
2021/03/19 04:29:06;;;;;;;41.67;16.20;;;3.20;99.90;;;;;;4948374;29;20500;-54
2021/03/19 04:31:34;;;;;;;41.87;15.40;;;3.20;99.90;;;;;;4963512;28;20937;-53
2021/03/19 04:34:01;;;;;;;36.43;14.97;;;3.10;99.90;;;;;;4965275;28;20510;-51
2021/03/19 04:36:36;;;;;;;36.40;16.30;;;3.10;99.90;;;;;;4976602;28;21015;-52
2021/03/19 04:39:06;;;;;;;37.27;14.77;;;3.10;99.90;;;;;;4965234;28;20465;-53
2021/03/19 04:41:34;;;;;;;37.57;15.83;;;3.10;99.90;;;;;;4988738;28;20459;-53
2021/03/19 04:44:05;;;;;;;38.27;16.20;;;3.00;99.90;;;;;;4989511;28;20482;-51
2021/03/19 04:46:34;;;;;;;43.90;17.90;;;3.00;99.90;;;;;;4992114;28;20454;-54
2021/03/19 04:49:01;;;;;;;40.17;17.97;;;2.90;99.90;;;;;;4997247;28;20454;-55
2021/03/19 04:51:29;;;;;;;44.43;17.83;;;2.90;99.90;;;;;;4991783;28;20446;-49
2021/03/19 04:53:58;;;;;;;35.40;17.60;;;2.90;99.90;;;;;;4993570;28;20444;-54
2021/03/19 04:56:26;;;;;;;67.37;19.60;;;2.90;99.90;;;;;;4998879;28;20818;-54
2021/03/19 04:58:54;;;;;;;37.23;16.90;;;2.90;99.90;;;;;;5000821;28;20441;-55
2021/03/19 05:01:22;;;;;;;37.60;14.07;;;2.90;99.90;;;;;;5000403;28;20740;-56
2021/03/19 05:03:51;;;;;;;43.63;17.03;;;2.80;99.90;;;;;;4991485;28;20477;-56
2021/03/19 05:06:20;;;;;;;42.33;17.73;;;2.80;99.90;;;;;;4985854;28;20708;-56
2021/03/19 05:08:47;;;;;;;38.77;17.60;;;2.80;99.90;;;;;;4984247;28;20917;-55
2021/03/19 05:11:16;;;;;;;36.67;16.73;;;2.70;99.90;;;;;;4988325;28;20447;-54
2021/03/19 05:13:45;;;;;;;40.97;16.83;;;2.60;99.90;;;;;;4991617;28;20462;-55
2021/03/19 05:16:15;;;;;;;41.90;18.50;;;2.60;99.90;;;;;;4994375;28;20494;-55
2021/03/19 05:18:43;;;;;;;34.27;18.13;;;2.60;99.90;;;;;;4989558;28;20440;-54
2021/03/19 05:21:13;;;;;;;32.43;15.30;;;2.60;99.90;;;;;;4985924;28;20513;-55
2021/03/19 05:23:41;;;;;;;39.07;18.40;;;2.60;99.90;;;;;;4985836;28;20456;-54
2021/03/19 05:26:09;;;;;;;45.93;17.10;;;2.60;99.90;;;;;;4984288;28;20505;-55
2021/03/19 05:28:39;;;;;;;40.67;18.40;;;2.50;99.90;;;;;;4994412;28;20522;-59
2021/03/19 05:31:07;;;;;;;31.40;16.53;;;2.50;99.90;;;;;;4994728;28;20443;-56
2021/03/19 05:33:46;;;;;;;37.70;18.43;;;2.50;99.90;;;;;;4989153;28;20527;-56
2021/03/19 05:36:17;;;;;;;34.77;14.57;;;2.50;99.90;;;;;;4985001;28;20550;-50
2021/03/19 05:38:46;;;;;;;39.00;16.73;;;2.50;99.90;;;;;;4983235;28;21718;-54
2021/03/19 05:41:16;;;;;;;30.27;15.40;;;2.50;99.90;;;;;;4975235;28;20455;-52
2021/03/19 05:43:48;;;;;;;33.17;17.53;;;2.50;99.90;;;;;;4975574;28;20905;-54
2021/03/19 05:46:19;;;;;;;29.60;15.07;;;2.50;99.90;;;;;;4975714;28;20452;-55
2021/03/19 05:48:52;;;;;;;36.53;14.30;;;2.60;99.90;;;;;;4975480;28;20436;-55
2021/03/19 05:51:26;;;;;;;29.23;17.30;;;2.60;99.90;;;;;;4975465;28;20773;-53
2021/03/19 05:53:58;;;;;;;30.53;15.30;;;2.60;99.90;;;;;;4974936;28;20480;-50
2021/03/19 05:56:30;;;;;;;29.40;14.77;;;2.60;99.90;;;;;;4975435;28;20506;-53
2021/03/19 05:59:00;;;;;;;39.57;17.03;;;2.60;99.90;;;;;;4985128;28;20443;-55
2021/03/19 06:01:31;;;;;;;28.10;15.00;;;2.60;99.90;;;;;;4985373;28;20773;-52
2021/03/19 06:04:00;;;;;;;40.73;16.43;;;2.60;99.90;;;;;;4982197;28;20463;-53
2021/03/19 06:06:52;;;;;;;27.00;14.33;;;2.60;99.90;;;;;;4983490;28;20912;-54
2021/03/19 06:09:32;;;;;;;28.77;14.57;;;2.60;99.90;;;;;;4989226;28;20463;-53
2021/03/19 06:12:04;;;;;;;30.37;15.70;;;2.60;99.90;;;;;;4988810;28;20519;-57
2021/03/19 06:14:39;;;;;;;33.40;15.87;;;2.50;99.90;;;;;;4958051;28;20785;-56
2021/03/19 06:17:22;;;;;;;29.73;15.90;;;2.60;99.90;;;;;;4990106;28;20475;-56
2021/03/19 06:19:54;;;;;;;26.70;12.10;;;2.60;99.90;;;;;;4979556;28;20515;-57
2021/03/19 06:22:36;;;;;;;27.90;15.53;;;2.70;99.90;;;;;;4992941;28;20878;-56
2021/03/19 06:25:19;;;;;;;28.43;13.63;;;2.70;99.90;;;;;;4961340;28;20792;-57
2021/03/19 06:27:52;;;;;;;24.07;13.80;;;2.70;99.90;;;;;;4974651;28;20447;-57
2021/03/19 06:30:27;;;;;;;23.10;14.20;;;2.70;99.90;;;;;;4988195;28;20456;-51
2021/03/19 06:33:06;;;;;;;26.80;13.87;;;2.70;99.90;;;;;;4980665;28;20787;-51
2021/03/19 06:35:37;;;;;;;19.23;12.30;;;2.70;99.90;;;;;;4985013;28;20511;-49
2021/03/19 06:38:35;;;;;;;27.53;13.83;;;2.70;99.90;;;;;;4986398;28;20484;-54
2021/03/19 06:41:25;;;;;;;30.33;14.27;;;2.80;99.90;;;;;;4947390;28;20458;-54
2021/03/19 06:44:11;;;;;;;22.23;12.03;;;2.90;99.90;;;;;;4978891;28;20460;-49
2021/03/19 06:46:43;;;;;;;21.83;12.90;;;3.00;99.90;;;;;;4978976;28;20599;-55
2021/03/19 06:49:13;;;;;;;29.93;12.47;;;3.00;99.90;;;;;;4985129;28;20457;-53
2021/03/19 06:51:43;;;;;;;23.13;11.60;;;3.00;99.90;;;;;;4986505;28;20459;-52
2021/03/19 06:54:15;;;;;;;32.23;14.17;;;3.00;99.90;;;;;;4983164;28;20506;-52
2021/03/19 06:57:05;;;;;;;32.80;13.97;;;3.00;99.90;;;;;;4976870;28;20491;-52
2021/03/19 06:59:42;;;;;;;21.97;13.70;;;3.10;99.90;;;;;;4970724;28;20460;-54
2021/03/19 07:02:56;;;;;;;24.00;11.90;;;3.30;99.90;;;;;;4976297;28;20550;-54
2021/03/19 07:05:55;;;;;;;23.10;11.60;;;3.40;99.90;;;;;;4973781;28;20828;-56
2021/03/19 07:08:32;;;;;;;22.93;12.00;;;3.50;99.90;;;;;;4943678;28;20781;-54
2021/03/19 07:11:11;;;;;;;29.57;13.40;;;3.70;99.90;;;;;;4974291;28;20466;-55
2021/03/19 07:14:04;;;;;;;24.83;14.70;;;3.80;99.90;;;;;;4980894;28;20523;-57
2021/03/19 07:16:45;;;;;;;21.53;12.70;;;3.90;99.90;;;;;;4983326;28;20499;-55
2021/03/19 07:19:18;;;;;;;25.13;13.90;;;3.90;99.90;;;;;;4976953;28;20535;-55
2021/03/19 07:22:06;;;;;;;20.33;12.73;;;3.90;99.90;;;;;;4984436;28;20919;-48
2021/03/19 07:25:10;;;;;;;19.70;11.63;;;4.00;99.90;;;;;;4980289;28;20451;-53
2021/03/19 07:27:54;;;;;;;21.27;11.60;;;4.10;99.90;;;;;;4968970;28;20783;-50
2021/03/19 07:30:28;;;;;;;29.17;11.13;;;4.20;99.90;;;;;;4956311;28;20522;-51
2021/03/19 07:33:35;;;;;;;23.03;12.03;;;4.20;99.90;;;;;;4955324;28;20829;-51
2021/03/19 07:36:18;;;;;;;21.03;11.93;;;4.40;99.90;;;;;;4957978;28;20456;-56
2021/03/19 07:39:36;;;;;;;22.40;12.90;;;4.40;99.90;;;;;;4976796;28;20455;-52
2021/03/19 07:42:21;;;;;;;22.77;13.50;;;4.40;99.90;;;;;;4988610;28;20447;-54
2021/03/19 07:44:58;;;;;;;19.23;11.20;;;4.40;99.90;;;;;;4978773;28;20458;-49
2021/03/19 07:47:43;;;;;;;16.70;10.57;;;4.40;99.90;;;;;;4979644;28;20901;-50
2021/03/19 07:50:31;;;;;;;21.13;12.40;;;4.40;99.90;;;;;;4977046;28;20450;-55
2021/03/19 07:53:31;;;;;;;20.20;10.13;;;4.40;99.90;;;;;;4988557;28;20824;-52
2021/03/19 07:56:02;;;;;;;20.83;10.83;;;4.50;99.90;;;;;;4977653;28;20466;-51
2021/03/19 07:58:45;;;;;;;19.87;10.40;;;4.50;99.90;;;;;;4994402;28;20447;-54
2021/03/19 08:01:24;;;;;;;23.77;11.20;;;4.80;99.90;;;;;;4974352;28;20487;-53
2021/03/19 08:04:00;;;;;;;18.70;11.00;;;4.70;99.90;;;;;;4979858;28;20470;-49
2021/03/19 08:06:34;;;;;;;20.17;11.77;;;4.60;99.90;;;;;;4974062;28;20498;-51
2021/03/19 08:09:06;;;;;;;15.03;10.47;;;4.60;99.90;;;;;;4995294;28;20451;-54
2021/03/19 08:11:53;;;;;;;15.97;11.10;;;4.70;99.90;;;;;;4989771;28;20450;-54
2021/03/19 08:14:52;;;;;;;17.37;10.90;;;4.70;99.90;;;;;;4985474;28;20424;-56
2021/03/19 08:17:41;;;;;;;16.40;9.50;;;4.90;99.90;;;;;;4955472;28;20953;-56
2021/03/19 08:20:50;;;;;;;21.63;11.23;;;5.20;99.90;;;;;;4989315;28;20434;-53
2021/03/19 08:23:28;;;;;;;17.43;10.50;;;5.30;99.90;;;;;;4983239;28;20463;-57
2021/03/19 08:25:57;;;;;;;14.37;9.17;;;5.40;99.90;;;;;;4997685;28;20806;-56
2021/03/19 08:28:32;;;;;;;16.10;10.53;;;5.50;99.90;;;;;;4990495;28;21040;-54
2021/03/19 08:31:09;;;;;;;15.77;9.30;;;5.60;99.90;;;;;;4979183;28;20778;-52
2021/03/19 08:33:57;;;;;;;15.23;8.60;;;5.60;99.90;;;;;;4973666;28;20872;-56
2021/03/19 08:36:37;;;;;;;12.23;8.00;;;5.50;99.90;;;;;;4971463;28;20488;-56
2021/03/19 08:39:16;;;;;;;13.23;7.53;;;5.50;99.90;;;;;;4968331;28;20780;-54
2021/03/19 08:41:48;;;;;;;14.47;9.13;;;5.50;99.90;;;;;;4972741;28;21294;-56
2021/03/19 08:44:19;;;;;;;11.50;8.00;;;5.40;99.90;;;;;;4975129;28;20787;-54
2021/03/19 08:46:51;;;;;;;12.07;7.60;;;5.30;99.90;;;;;;4968211;28;20451;-53
2021/03/19 08:49:40;;;;;;;16.97;7.50;;;5.20;99.90;;;;;;4978275;28;20792;-53
2021/03/19 08:52:36;;;;;;;10.70;7.27;;;5.00;99.90;;;;;;4970098;28;20464;-53
2021/03/19 08:55:26;;;;;;;11.43;6.63;;;4.80;99.90;;;;;;4926229;28;20791;-53
2021/03/19 08:57:56;;;;;;;8.90;6.27;;;4.70;99.90;;;;;;4960727;28;20681;-55
2021/03/19 09:00:57;;;;;;;9.67;6.00;;;4.50;99.90;;;;;;4976524;28;20785;-56
2021/03/19 09:03:55;;;;;;;12.20;7.07;;;4.30;99.90;;;;;;4977228;28;20442;-55
2021/03/19 09:06:32;;;;;;;13.50;7.93;;;4.10;99.90;;;;;;4978510;28;20448;-50
2021/03/19 09:09:13;;;;;;;10.90;7.33;;;3.90;99.90;;;;;;4984259;28;20492;-53
2021/03/19 09:12:07;;;;;;;17.00;7.73;;;3.80;99.90;;;;;;4987717;28;20463;-55
2021/03/19 09:14:38;;;;;;;16.27;8.37;;;3.70;99.90;;;;;;4986388;28;20463;-56
2021/03/19 09:17:08;;;;;;;13.43;8.60;;;3.70;99.90;;;;;;4980335;28;20794;-56
2021/03/19 09:19:54;;;;;;;13.27;8.33;;;3.80;99.90;;;;;;4987664;28;20776;-53
2021/03/19 09:22:47;;;;;;;12.17;6.97;;;3.80;99.90;;;;;;4984942;28;21039;-49
2021/03/19 09:25:39;;;;;;;11.70;7.33;;;4.00;99.90;;;;;;4984485;28;20448;-54
2021/03/19 09:28:56;;;;;;;12.70;7.43;;;4.40;99.90;;;;;;4984527;28;20456;-57
2021/03/19 09:31:44;;;;;;;10.37;6.80;;;4.70;99.90;;;;;;4987043;28;20464;-53
2021/03/19 09:34:24;;;;;;;14.53;7.30;;;4.90;99.90;;;;;;4993452;28;20842;-53
2021/03/19 09:37:26;;;;;;;12.60;7.70;;;5.00;99.90;;;;;;4978974;28;20517;-57
2021/03/19 09:40:36;;;;;;;9.23;6.27;;;4.90;99.90;;;;;;4980818;28;20446;-50
2021/03/19 09:43:05;;;;;;;13.40;7.80;;;4.90;99.90;;;;;;4988970;28;20454;-60
2021/03/19 09:45:37;;;;;;;12.20;8.13;;;4.80;99.90;;;;;;4996454;28;20438;-54
2021/03/19 09:48:34;;;;;;;12.53;7.23;;;5.00;99.90;;;;;;4988013;28;20478;-57
2021/03/19 09:51:33;;;;;;;11.27;6.10;;;5.20;99.90;;;;;;4996050;28;20455;-56
2021/03/19 09:54:30;;;;;;;9.73;5.37;;;5.40;99.90;;;;;;4998360;28;20435;-56
2021/03/19 09:57:03;;;;;;;9.47;6.33;;;5.60;99.90;;;;;;4979704;28;20492;-57
2021/03/19 09:59:34;;;;;;;7.37;5.30;;;5.70;99.90;;;;;;4975685;28;20451;-56
2021/03/19 10:02:01;;;;;;;6.90;3.97;;;5.70;99.90;;;;;;4989432;28;20531;-55
2021/03/19 10:04:35;;;;;;;8.73;4.50;;;5.80;99.90;;;;;;4997603;28;20451;-55
2021/03/19 10:07:14;;;;;;;9.83;5.50;;;6.00;99.90;;;;;;4988236;28;20513;-57
2021/03/19 10:09:45;;;;;;;7.90;4.83;;;6.10;99.90;;;;;;4972688;28;20444;-54
2021/03/19 10:12:17;;;;;;;8.87;5.43;;;6.20;99.90;;;;;;4982993;28;20860;-56
2021/03/19 10:14:48;;;;;;;8.13;4.43;;;6.10;99.90;;;;;;4976184;28;20793;-58
2021/03/19 10:17:31;;;;;;;4.50;3.70;;;6.00;99.90;;;;;;4968032;28;20518;-57
2021/03/19 10:20:02;;;;;;;6.87;4.40;;;5.80;99.90;;;;;;4971871;28;20917;-51
2021/03/19 10:22:39;;;;;;;6.20;4.37;;;5.70;99.90;;;;;;4973320;28;20805;-58
2021/03/19 10:25:32;;;;;;;5.37;3.63;;;5.60;99.90;;;;;;4981290;28;20794;-55
2021/03/19 10:28:05;;;;;;;7.17;3.70;;;5.50;99.90;;;;;;4963053;28;20955;-52
2021/03/19 10:33:19;;;;;;;9.30;4.30;;;5.40;99.90;;;;;;5649323;23;20455;-52
2021/03/19 10:35:56;;;;;;;5.80;4.20;;;5.30;99.90;;;;;;4949983;29;20942;-56
2021/03/19 10:38:33;;;;;;;7.80;4.63;;;5.30;99.90;;;;;;4937362;29;20862;-57
2021/03/19 10:41:08;;;;;;;6.63;3.73;;;5.50;99.90;;;;;;4935870;29;20847;-53
2021/03/19 10:43:50;;;;;;;12.00;6.20;;;6.00;99.90;;;;;;4933970;29;20913;-57
2021/03/19 10:46:23;;;;;;;4.77;3.10;;;6.40;99.90;;;;;;4931778;29;20796;-58
2021/03/19 10:48:57;;;;;;;3.93;2.57;;;7.60;99.90;;;;;;4929791;29;20776;-55
2021/03/19 10:51:38;;;;;;;6.83;4.17;;;8.50;99.90;;;;;;4937449;29;20776;-56
2021/03/19 10:54:15;;;;;;;7.63;3.63;;;9.20;99.90;;;;;;4928615;29;20527;-58
2021/03/19 10:56:49;;;;;;;5.80;3.13;;;10.00;99.90;;;;;;4939195;29;20481;-56
2021/03/19 10:59:31;;;;;;;4.63;2.50;;;10.70;99.90;;;;;;4940345;29;20483;-53
2021/03/19 11:02:17;;;;;;;3.53;2.80;;;11.30;99.90;;;;;;4936052;29;20452;-55
2021/03/19 11:04:48;;;;;;;4.00;2.70;;;11.70;99.90;;;;;;4942182;29;20453;-55
2021/03/19 11:07:31;;;;;;;4.83;2.70;;;11.50;99.90;;;;;;4937342;29;20768;-52
2021/03/19 11:10:13;;;;;;;5.47;2.87;;;11.10;99.90;;;;;;4924192;29;20840;-53
2021/03/19 11:12:44;;;;;;;6.20;3.17;;;10.40;99.90;;;;;;4929545;29;20856;-51
2021/03/19 11:15:17;;;;;;;13.33;3.07;;;9.50;99.90;;;;;;4927864;29;20809;-55
2021/03/19 11:17:45;;;;;;;3.77;2.40;;;8.90;99.90;;;;;;4926781;29;20513;-54
2021/03/19 11:20:33;;;;;;;16.60;3.37;;;8.40;99.90;;;;;;4934492;29;20773;-52
2021/03/19 11:23:03;;;;;;;7.40;2.80;;;8.40;99.90;;;;;;4934721;29;20942;-53
2021/03/19 11:25:46;;;;;;;4.70;2.50;;;8.50;99.90;;;;;;4932841;29;20757;-57
2021/03/19 11:28:30;;;;;;;8.13;3.73;;;8.60;99.90;;;;;;4924951;29;20910;-55
2021/03/19 11:31:27;;;;;;;5.23;2.47;;;8.80;99.90;;;;;;4930961;29;20802;-56
2021/03/19 11:34:03;;;;;;;3.90;2.60;;;8.80;99.90;;;;;;4921016;29;20489;-57
2021/03/19 11:36:47;;;;;;;5.03;2.40;;;8.60;99.90;;;;;;4927927;29;20578;-56
2021/03/19 11:39:17;;;;;;;6.07;2.77;;;8.40;99.90;;;;;;4922960;29;20792;-54
2021/03/19 11:41:45;;;;;;;4.03;1.83;;;8.00;99.90;;;;;;4930821;29;20460;-56
2021/03/19 11:44:16;;;;;;;2.23;1.67;;;7.80;99.90;;;;;;4921190;29;20786;-56
2021/03/19 11:46:45;;;;;;;2.93;1.60;;;7.60;99.90;;;;;;4931843;29;20438;-56
2021/03/19 11:49:16;;;;;;;4.20;1.80;;;7.70;99.90;;;;;;4933147;29;20457;-57
2021/03/19 11:51:43;;;;;;;2.47;1.70;;;7.70;99.90;;;;;;4929900;29;20606;-54
2021/03/19 11:54:12;;;;;;;3.03;1.50;;;7.90;99.90;;;;;;4935718;29;20901;-53
2021/03/19 11:56:41;;;;;;;3.83;1.90;;;7.80;99.90;;;;;;4935161;29;20588;-54
2021/03/19 11:59:12;;;;;;;4.30;1.97;;;7.70;99.90;;;;;;4939618;29;20467;-52
2021/03/19 12:01:42;;;;;;;5.70;1.70;;;7.50;99.90;;;;;;4935736;29;20927;-56
2021/03/19 12:04:20;;;;;;;3.30;1.93;;;7.30;99.90;;;;;;4941803;29;20846;-54
2021/03/19 12:06:51;;;;;;;6.50;2.80;;;7.20;99.90;;;;;;4925031;29;20632;-59
2021/03/19 12:09:19;;;;;;;6.07;2.87;;;7.10;99.90;;;;;;4942071;29;20837;-58
2021/03/19 12:11:48;;;;;;;4.00;2.00;;;6.90;99.90;;;;;;4937321;29;20786;-57
2021/03/19 12:14:22;;;;;;;2.80;2.00;;;6.90;99.90;;;;;;4935507;29;20802;-58
2021/03/19 12:16:50;;;;;;;2.67;2.07;;;6.80;99.90;;;;;;4935169;29;20836;-53
2021/03/19 12:19:22;;;;;;;4.67;2.40;;;6.80;99.90;;;;;;4929274;29;20794;-56
2021/03/19 12:21:50;;;;;;;5.13;3.00;;;6.80;99.90;;;;;;4929969;29;20489;-57
2021/03/19 12:24:21;;;;;;;3.67;2.03;;;7.00;99.90;;;;;;4938692;29;20806;-54
2021/03/19 12:26:48;;;;;;;2.57;1.70;;;7.20;99.90;;;;;;4935182;29;20453;-60
2021/03/19 12:29:17;;;;;;;1.70;1.20;;;7.30;99.90;;;;;;4933991;29;20440;-56
2021/03/19 12:31:46;;;;;;;2.53;1.90;;;7.30;99.90;;;;;;4938953;29;20841;-54
2021/03/19 12:34:14;;;;;;;6.17;1.87;;;7.30;99.90;;;;;;4935691;29;20782;-53
2021/03/19 12:36:43;;;;;;;4.73;1.63;;;7.20;99.90;;;;;;4939347;29;20790;-54
2021/03/19 12:39:12;;;;;;;4.40;1.97;;;7.20;99.90;;;;;;4939048;29;20785;-56
2021/03/19 12:41:40;;;;;;;3.87;1.43;;;7.10;99.90;;;;;;4932571;29;20442;-54
2021/03/19 12:44:10;;;;;;;1.77;1.47;;;7.10;99.90;;;;;;4931582;29;20950;-61
2021/03/19 12:46:39;;;;;;;3.47;1.90;;;6.90;99.90;;;;;;4936917;29;20457;-57
2021/03/19 12:49:11;;;;;;;8.40;1.77;;;6.70;99.90;;;;;;4935809;29;20457;-56
2021/03/19 12:51:40;;;;;;;4.10;2.73;;;6.60;99.90;;;;;;4934464;29;20961;-55
2021/03/19 12:54:09;;;;;;;2.90;1.87;;;6.50;99.90;;;;;;4936790;29;21621;-52
2021/03/19 12:56:37;;;;;;;7.73;1.60;;;6.50;99.90;;;;;;4941409;29;20855;-55
2021/03/19 12:59:05;;;;;;;1.50;1.30;;;6.40;99.90;;;;;;4942004;29;20785;-52
2021/03/19 13:01:34;;;;;;;2.20;1.73;;;6.40;99.90;;;;;;4938354;29;20477;-55
2021/03/19 13:04:05;;;;;;;4.07;1.57;;;6.40;99.90;;;;;;4937600;29;20862;-55
2021/03/19 13:06:36;;;;;;;3.27;1.27;;;6.40;99.90;;;;;;4937182;29;20778;-56
2021/03/19 13:09:06;;;;;;;1.90;1.23;;;6.50;99.90;;;;;;4933539;29;21624;-53
2021/03/19 13:11:35;;;;;;;2.30;1.37;;;6.60;99.90;;;;;;4938418;29;20442;-52
2021/03/19 13:14:03;;;;;;;3.30;1.80;;;6.80;99.90;;;;;;4944949;29;20862;-57
2021/03/19 13:16:32;;;;;;;2.60;1.43;;;6.90;99.90;;;;;;4941942;29;20485;-53
2021/03/19 13:19:01;;;;;;;1.47;1.30;;;7.00;99.90;;;;;;4933779;29;20797;-58
2021/03/19 13:21:30;;;;;;;10.20;5.97;;;7.10;99.90;;;;;;4934261;29;20460;-56
2021/03/19 13:24:00;;;;;;;4.87;2.17;;;7.20;99.90;;;;;;4938346;29;20471;-54
2021/03/19 13:26:36;;;;;;;3.57;1.37;;;7.00;99.90;;;;;;4926405;29;20915;-53
2021/03/19 13:29:04;;;;;;;2.93;1.30;;;6.90;99.90;;;;;;4929341;29;20452;-53
2021/03/19 13:31:33;;;;;;;2.90;1.67;;;7.00;99.80;;;;;;4935506;29;20816;-54
2021/03/19 13:34:02;;;;;;;2.00;1.40;;;7.20;99.90;;;;;;4943347;29;20799;-57